createdAt,value
2023-03-11T00:01:25.164Z,100026.19
2023-03-11T00:04:26.568Z,100032.09
2023-03-11T00:07:27.942Z,100035.41
2023-03-11T00:10:32.622Z,100048.09
2023-03-11T00:13:34.087Z,100051.56
2023-03-11T00:16:35.510Z,100061.78
2023-03-11T00:19:36.952Z,100065.22
2023-03-11T00:22:38.372Z,100072.00
2023-03-11T00:25:40.146Z,100082.19
2023-03-11T00:28:41.660Z,100089.03
2023-03-11T00:31:44.115Z,100095.75
2023-03-11T00:34:45.532Z,100095.72
2023-03-11T00:37:48.176Z,100092.38
2023-03-11T00:40:49.928Z,100099.22
2023-03-11T00:43:51.516Z,100104.28
2023-03-11T00:46:52.926Z,100111.91
2023-03-11T00:49:54.358Z,100116.13
2023-03-11T00:52:56.646Z,100112.81
2023-03-11T00:55:58.552Z,100114.50
2023-03-11T00:59:00.198Z,100131.47
2023-03-11T01:02:01.643Z,100136.56
2023-03-11T01:05:03.226Z,100144.19
2023-03-11T01:08:04.950Z,100145.88
2023-03-11T01:11:07.950Z,100149.28
2023-03-11T01:14:09.943Z,100148.63
2023-03-11T01:17:12.126Z,100154.59
2023-03-11T01:20:13.919Z,100161.38
2023-03-11T01:23:17.095Z,100157.97
2023-03-11T01:26:18.503Z,100166.38
2023-03-11T01:29:19.883Z,100170.59
2023-03-11T01:32:21.390Z,100165.56
2023-03-11T01:35:26.173Z,100176.53
2023-03-11T01:38:28.520Z,100171.34
2023-03-11T01:41:29.939Z,100174.75
2023-03-11T01:44:31.721Z,100183.16
2023-03-11T01:47:39.090Z,100190.75
2023-03-11T01:50:46.101Z,100195.91
2023-03-11T01:53:48.208Z,100207.78
2023-03-11T01:56:51.332Z,100211.16
2023-03-11T01:59:56.435Z,100215.47
2023-03-11T02:03:02.112Z,100219.69
2023-03-11T02:06:08.463Z,100234.00
2023-03-11T02:09:10.999Z,100237.44
2023-03-11T02:12:14.623Z,100238.31
2023-03-11T02:15:16.942Z,100244.25
2023-03-11T02:18:19.127Z,100249.34
2023-03-11T02:21:30.007Z,100253.53
2023-03-11T02:24:55.067Z,100253.53
2023-03-11T02:27:58.787Z,100260.28
2023-03-11T02:31:01.645Z,100266.25
2023-03-11T02:34:07.921Z,100275.53
2023-03-11T02:37:16.707Z,100265.47
2023-03-11T02:40:23.988Z,100270.53
2023-03-11T02:43:41.760Z,100275.66
2023-03-11T02:46:45.225Z,100275.72
2023-03-11T02:49:47.704Z,100287.63
2023-03-11T02:52:49.930Z,100292.75
2023-03-11T02:55:51.393Z,100295.25
2023-03-11T02:58:52.846Z,100301.13
2023-03-11T03:01:55.549Z,100301.09
2023-03-11T03:04:57.145Z,100305.25
2023-03-11T03:07:59.024Z,100317.09
2023-03-11T03:11:00.484Z,100317.16
2023-03-11T03:14:01.925Z,100326.41
2023-03-11T03:17:03.587Z,100320.50
2023-03-11T03:20:06.580Z,100326.47
2023-03-11T03:23:08.237Z,100330.03
2023-03-11T03:26:13.717Z,100335.94
2023-03-11T03:29:16.893Z,100345.22
2023-03-11T03:32:19.286Z,100353.69
2023-03-11T03:35:21.348Z,100357.06
2023-03-11T03:38:49.130Z,100371.44
2023-03-11T03:41:51.069Z,100378.19
2023-03-11T03:44:52.776Z,100382.38
2023-03-11T03:47:54.477Z,100387.50
2023-03-11T03:51:03.413Z,100391.75
2023-03-11T03:54:05.289Z,100396.84
2023-03-11T03:57:06.836Z,100404.50
2023-03-11T04:00:15.395Z,100405.47
2023-03-11T04:03:18.459Z,100407.25
2023-03-11T04:06:28.104Z,100400.66
2023-03-11T04:09:35.457Z,100411.81
2023-03-11T04:12:37.054Z,100420.31
2023-03-11T04:15:39.189Z,100411.88
2023-03-11T04:18:41.033Z,100422.06
2023-03-11T04:21:42.820Z,100419.59
2023-03-11T04:24:45.592Z,100422.22
2023-03-11T04:27:47.509Z,100427.34
2023-03-11T04:30:49.060Z,100430.00
2023-03-11T04:33:50.787Z,100435.16
2023-03-11T04:36:54.029Z,100439.38
2023-03-11T04:39:59.188Z,100438.63
2023-03-11T04:43:00.753Z,100449.63
2023-03-11T04:46:02.595Z,100452.19
2023-03-11T04:49:04.160Z,100461.56
2023-03-11T04:52:05.795Z,100463.31
2023-03-11T04:55:07.943Z,100481.94
2023-03-11T04:58:09.456Z,100493.75
2023-03-11T05:01:13.119Z,100489.50
2023-03-11T05:04:15.174Z,100493.63
2023-03-11T05:07:17.675Z,100498.69
2023-03-11T05:10:20.132Z,100505.41
2023-03-11T05:13:22.214Z,100510.47
2023-03-11T05:16:26.014Z,100514.63
2023-03-11T05:19:27.650Z,100518.00
2023-03-11T05:22:30.264Z,100519.72
2023-03-11T05:25:31.961Z,100531.44
2023-03-11T05:28:33.492Z,100532.22
2023-03-11T05:31:36.107Z,100538.91
2023-03-11T05:34:38.237Z,100535.44
2023-03-11T05:37:40.157Z,100541.31
2023-03-11T05:40:41.878Z,100554.84
2023-03-11T05:43:43.361Z,100559.03
2023-03-11T05:46:45.397Z,100564.06
2023-03-11T05:49:48.037Z,100559.81
2023-03-11T05:52:51.697Z,100564.09
2023-03-11T05:55:58.251Z,100563.44
2023-03-11T05:59:01.327Z,100568.50
2023-03-11T06:02:06.201Z,100563.47
2023-03-11T06:05:09.319Z,100567.72
2023-03-11T06:08:12.318Z,100580.38
2023-03-11T06:11:13.826Z,100583.69
2023-03-11T06:14:15.485Z,100580.31
2023-03-11T06:17:18.922Z,100586.22
2023-03-11T06:20:21.089Z,100585.34
2023-03-11T06:23:23.487Z,100597.94
2023-03-11T06:26:25.050Z,100602.22
2023-03-11T06:29:26.913Z,100609.84
2023-03-11T06:32:29.432Z,100617.41
2023-03-11T06:35:31.021Z,100617.41
2023-03-11T06:38:33.927Z,100622.91
2023-03-11T06:41:36.585Z,100617.91
2023-03-11T06:44:39.940Z,100615.19
2023-03-11T06:47:41.437Z,100625.66
2023-03-11T06:50:42.897Z,100623.88
2023-03-11T06:53:48.512Z,100637.03
2023-03-11T06:56:50.135Z,100639.50
2023-03-11T06:59:52.249Z,100636.84
2023-03-11T07:02:54.250Z,100631.22
2023-03-11T07:05:57.557Z,100632.63
2023-03-11T07:08:59.051Z,100636.38
2023-03-11T07:12:00.749Z,100641.59
2023-03-11T07:15:08.270Z,100647.34
2023-03-11T07:18:10.664Z,100661.44
2023-03-11T07:21:15.550Z,100662.47
2023-03-11T07:24:17.365Z,100668.75
2023-03-11T07:27:19.779Z,100673.25
2023-03-11T07:30:21.395Z,100671.59
2023-03-11T07:33:23.869Z,100680.84
2023-03-11T07:36:26.236Z,100689.66
2023-03-11T07:39:27.827Z,100691.84
2023-03-11T07:42:29.225Z,100701.50
2023-03-11T07:45:30.610Z,100704.34
2023-03-11T07:48:32.144Z,100705.69
2023-03-11T07:51:36.274Z,100715.03
2023-03-11T07:54:37.672Z,100733.66
2023-03-11T07:57:39.181Z,100736.94
2023-03-11T08:00:40.781Z,100746.59
2023-03-11T08:03:44.509Z,100755.91
2023-03-11T08:06:47.731Z,100763.00
2023-03-11T08:09:49.223Z,100771.06
2023-03-11T08:12:51.729Z,100781.69
2023-03-11T08:15:53.120Z,100774.38
2023-03-11T08:18:54.826Z,100776.91
2023-03-11T08:21:56.222Z,100779.88
2023-03-11T08:24:57.666Z,100780.19
2023-03-11T08:27:59.123Z,100787.88
2023-03-11T08:31:00.780Z,100784.47
2023-03-11T08:34:05.267Z,100787.94
2023-03-11T08:37:06.925Z,100789.91
2023-03-11T08:40:09.054Z,100800.22
2023-03-11T08:43:14.511Z,100804.94
2023-03-11T08:46:25.463Z,100802.94
2023-03-11T08:49:27.066Z,100808.06
2023-03-11T08:52:28.478Z,100815.97
2023-03-11T08:55:29.893Z,100813.97
2023-03-11T08:58:31.324Z,100824.69
2023-03-11T09:01:32.737Z,100821.69
2023-03-11T09:04:34.139Z,100824.97
2023-03-11T09:07:35.782Z,100825.72
2023-03-11T09:10:37.231Z,100825.28
2023-03-11T09:13:38.818Z,100828.53
2023-03-11T09:16:40.916Z,100835.09
2023-03-11T09:19:42.469Z,100840.72
2023-03-11T09:22:43.974Z,100834.47
2023-03-11T09:25:45.421Z,100843.19
2023-03-11T09:28:46.862Z,100845.81
2023-03-11T09:31:48.289Z,100842.88
2023-03-11T09:34:49.680Z,100846.94
2023-03-11T09:37:51.101Z,100855.59
2023-03-11T09:41:00.965Z,100857.97
2023-03-11T09:44:14.467Z,100858.31
2023-03-11T09:47:27.946Z,100865.66
2023-03-11T09:50:48.504Z,100861.41
2023-03-11T09:53:57.434Z,100857.47
2023-03-11T09:57:01.656Z,100864.03
2023-03-11T10:00:05.761Z,100858.69
2023-03-11T10:03:26.475Z,100867.78
2023-03-11T10:06:31.478Z,100876.81
2023-03-11T10:09:45.581Z,100871.06
2023-03-11T10:13:03.818Z,100877.78
2023-03-11T10:16:40.843Z,100875.13
2023-03-11T10:19:46.601Z,100864.69
2023-03-11T10:23:09.373Z,100865.13
2023-03-11T10:26:18.619Z,100868.50
2023-03-11T10:29:32.596Z,100875.09
2023-03-11T10:32:37.121Z,100869.56
2023-03-11T10:35:41.511Z,100870.53
2023-03-11T10:38:47.435Z,100867.28
2023-03-11T10:42:01.719Z,100866.75
2023-03-11T10:45:04.496Z,100867.78
2023-03-11T10:48:11.680Z,100868.28
2023-03-11T10:51:16.618Z,100876.75
2023-03-11T10:54:30.293Z,100875.53
2023-03-11T10:57:38.149Z,100875.09
2023-03-11T11:00:39.667Z,100872.31
2023-03-11T11:03:42.150Z,100873.06
2023-03-11T11:06:43.581Z,100873.19
2023-03-11T11:09:44.960Z,100867.19
2023-03-11T11:13:00.348Z,100870.22
2023-03-11T11:16:19.739Z,100870.72
2023-03-11T11:19:21.242Z,100877.53
2023-03-11T11:22:23.685Z,100878.09
2023-03-11T11:25:29.534Z,100873.50
2023-03-11T11:28:32.982Z,100864.75
2023-03-11T11:31:34.438Z,100872.38
2023-03-11T11:34:35.823Z,100873.28
2023-03-11T11:37:41.430Z,100872.22
2023-03-11T11:40:42.844Z,100870.50
2023-03-11T11:43:58.838Z,100867.53
2023-03-11T11:47:37.725Z,100861.03
2023-03-11T11:50:45.185Z,100872.69
2023-03-11T11:53:59.003Z,100864.06
2023-03-11T11:57:09.007Z,100864.25
2023-03-11T12:00:22.386Z,100857.13
2023-03-11T12:03:52.258Z,100854.34
2023-03-11T12:07:37.387Z,100854.28
2023-03-11T12:10:54.941Z,100856.44
2023-03-11T12:14:16.598Z,100854.78
2023-03-11T12:17:21.542Z,100846.94
2023-03-11T12:20:34.440Z,100853.88
2023-03-11T12:24:06.038Z,100849.19
2023-03-11T12:27:20.458Z,100855.66
2023-03-11T12:30:56.480Z,100854.19
2023-03-11T12:34:04.362Z,100852.41
2023-03-11T12:37:14.284Z,100853.78
2023-03-11T12:40:48.648Z,100857.13
2023-03-11T12:43:49.986Z,100862.00
2023-03-11T12:46:54.525Z,100856.16
2023-03-11T12:50:34.753Z,100868.44
2023-03-11T12:53:49.654Z,100870.19
2023-03-11T12:56:57.198Z,100873.84
2023-03-11T13:00:21.180Z,100864.97
2023-03-11T13:03:47.661Z,100863.28
2023-03-11T13:07:09.641Z,100859.53
2023-03-11T13:10:15.766Z,100852.69
2023-03-11T13:13:29.544Z,100862.53
2023-03-11T13:16:30.905Z,100870.59
2023-03-11T13:19:32.311Z,100868.59
2023-03-11T13:23:03.759Z,100867.59
2023-03-11T13:26:14.194Z,100869.53
2023-03-11T13:29:37.234Z,100865.41
2023-03-11T13:33:11.992Z,100860.44
2023-03-11T13:36:22.496Z,100858.16
2023-03-11T13:39:47.719Z,100873.56
2023-03-11T13:42:52.445Z,100853.31
2023-03-11T13:46:00.709Z,100865.19
2023-03-11T13:49:09.125Z,100876.28
2023-03-11T13:52:17.002Z,100884.31
2023-03-11T13:55:22.179Z,100870.88
2023-03-11T13:58:26.961Z,100878.16
2023-03-11T14:01:28.362Z,100880.53
2023-03-11T14:04:32.653Z,100879.88
2023-03-11T14:07:35.187Z,100883.81
2023-03-11T14:10:36.676Z,100878.22
2023-03-11T14:13:49.454Z,100879.88
2023-03-11T14:16:51.047Z,100876.00
2023-03-11T14:20:06.984Z,100882.47
2023-03-11T14:23:18.228Z,100889.16
2023-03-11T14:26:30.194Z,100877.75
2023-03-11T14:29:35.041Z,100885.81
2023-03-11T14:32:36.440Z,100888.31
2023-03-11T14:35:39.756Z,100897.25
2023-03-11T14:38:43.053Z,100904.69
2023-03-11T14:41:44.571Z,100900.22
2023-03-11T14:44:57.884Z,100903.22
2023-03-11T14:48:12.679Z,100905.94
2023-03-11T14:51:19.561Z,100908.09
2023-03-11T14:54:26.891Z,100911.53
2023-03-11T14:57:39.457Z,100901.25
2023-03-11T15:00:56.012Z,100901.66
2023-03-11T15:04:12.149Z,100905.13
2023-03-11T15:07:13.958Z,100901.97
2023-03-11T15:10:15.630Z,100902.00
2023-03-11T15:13:17.016Z,100891.22
2023-03-11T15:16:30.447Z,100894.88
2023-03-11T15:19:33.254Z,100886.91
2023-03-11T15:22:37.772Z,100883.03
2023-03-11T15:25:39.188Z,100875.25
2023-03-11T15:28:40.838Z,100894.09
2023-03-11T15:31:45.707Z,100895.44
2023-03-11T15:34:59.970Z,100894.41
2023-03-11T15:38:20.894Z,100897.34
2023-03-11T15:41:22.685Z,100918.81
2023-03-11T15:44:30.696Z,100905.69
2023-03-11T15:47:32.077Z,100915.13
2023-03-11T15:50:50.531Z,100921.84
2023-03-11T15:53:53.692Z,100916.41
2023-03-11T15:56:59.570Z,100919.63
2023-03-11T16:00:01.800Z,100920.75
2023-03-11T16:03:08.486Z,100920.06
2023-03-11T16:06:09.912Z,100923.00
2023-03-11T16:09:12.451Z,100918.16
2023-03-11T16:12:19.203Z,100925.19
2023-03-11T16:15:22.932Z,100926.06
2023-03-11T16:18:24.378Z,100919.97
2023-03-11T16:21:34.796Z,100930.81
2023-03-11T16:24:36.256Z,100928.53
2023-03-11T16:27:37.722Z,100929.44
2023-03-11T16:30:39.114Z,100931.34
2023-03-11T16:33:40.528Z,100934.03
2023-03-11T16:36:41.950Z,100929.91
2023-03-11T16:39:43.314Z,100936.81
2023-03-11T16:42:46.023Z,100936.13
2023-03-11T16:45:47.437Z,100946.50
2023-03-11T16:48:48.952Z,100948.41
2023-03-11T16:51:50.379Z,100945.13
2023-03-11T16:54:51.774Z,100951.19
2023-03-11T16:57:53.260Z,100951.31
2023-03-11T17:00:54.670Z,100961.66
2023-03-11T17:03:56.087Z,100965.16
2023-03-11T17:06:57.501Z,100966.16
2023-03-11T17:09:59.742Z,100966.25
2023-03-11T17:13:01.154Z,100971.53
2023-03-11T17:16:02.870Z,100971.66
2023-03-11T17:19:04.383Z,100972.59
2023-03-11T17:22:05.790Z,100982.06
2023-03-11T17:25:07.753Z,100980.47
2023-03-11T17:28:09.632Z,100974.66
2023-03-11T17:31:15.357Z,100984.91
2023-03-11T17:34:16.820Z,100985.00
2023-03-11T17:37:18.232Z,100981.66
2023-03-11T17:40:19.761Z,100992.75
2023-03-11T17:43:21.535Z,100986.88
2023-03-11T17:46:23.252Z,100985.22
2023-03-11T17:49:24.874Z,100990.38
2023-03-11T17:52:26.266Z,100990.47
2023-03-11T17:55:27.712Z,100994.75
2023-03-11T17:58:29.103Z,100995.63
2023-03-11T18:01:30.569Z,100989.75
2023-03-11T18:04:31.982Z,100997.41
2023-03-11T18:07:36.028Z,100995.75
2023-03-11T18:10:37.456Z,100993.19
2023-03-11T18:13:39.863Z,100994.09
2023-03-11T18:16:41.325Z,101005.19
2023-03-11T18:19:42.727Z,101006.00
2023-03-11T18:22:46.291Z,101003.53
2023-03-11T18:25:52.051Z,101011.19
2023-03-11T18:28:58.405Z,101007.84
2023-03-11T18:31:59.874Z,101007.91
2023-03-11T18:35:01.629Z,101012.16
2023-03-11T18:38:03.061Z,101007.94
2023-03-11T18:41:04.507Z,101023.22
2023-03-11T18:44:05.939Z,101030.88
2023-03-11T18:47:07.677Z,101022.44
2023-03-11T18:50:09.800Z,101020.78
2023-03-11T18:53:11.208Z,101018.28
2023-03-11T18:56:15.161Z,101018.22
2023-03-11T18:59:16.580Z,101019.94
2023-03-11T19:02:18.061Z,101013.22
2023-03-11T19:05:20.072Z,101016.56
2023-03-11T19:08:21.520Z,101022.50
2023-03-11T19:11:24.233Z,101016.56
2023-03-11T19:14:25.704Z,101024.28
2023-03-11T19:17:27.105Z,101026.84
2023-03-11T19:20:28.526Z,101020.91
2023-03-11T19:23:29.991Z,101023.41
2023-03-11T19:26:44.266Z,101021.69
2023-03-11T19:29:47.009Z,101017.47
2023-03-11T19:32:48.462Z,101019.94
2023-03-11T19:35:57.928Z,101027.53
2023-03-11T19:38:59.366Z,101023.31
2023-03-11T19:42:00.782Z,101028.38
2023-03-11T19:45:02.257Z,101029.19
2023-03-11T19:48:03.755Z,101035.91
2023-03-11T19:51:05.969Z,101042.69
2023-03-11T19:54:07.452Z,101049.44
2023-03-11T19:57:09.088Z,101049.41
2023-03-11T20:00:12.026Z,101052.78
2023-03-11T20:03:14.088Z,101051.94
2023-03-11T20:06:15.697Z,101054.50
2023-03-11T20:09:17.088Z,101051.91
2023-03-11T20:12:18.679Z,101060.41
2023-03-11T20:15:20.160Z,101053.63
2023-03-11T20:18:21.643Z,101052.75
2023-03-11T20:21:23.400Z,101057.00
2023-03-11T20:24:25.105Z,101053.63
2023-03-11T20:27:26.522Z,101059.53
2023-03-11T20:30:28.647Z,101062.94
2023-03-11T20:33:30.129Z,101067.16
2023-03-11T20:36:32.856Z,101068.06
2023-03-11T20:39:34.415Z,101075.69
2023-03-11T20:42:35.865Z,101080.69
2023-03-11T20:45:37.350Z,101080.63
2023-03-11T20:48:39.521Z,101083.97
2023-03-11T20:51:41.931Z,101087.34
2023-03-11T20:54:43.621Z,101090.81
2023-03-11T20:57:45.205Z,101092.56
2023-03-11T21:00:46.725Z,101085.78
2023-03-11T21:03:48.650Z,101092.56
2023-03-11T21:06:51.182Z,101093.47
2023-03-11T21:09:52.729Z,101094.41
2023-03-11T21:12:54.241Z,101085.16
2023-03-11T21:15:55.723Z,101095.44
2023-03-11T21:18:57.117Z,101095.53
2023-03-11T21:21:58.540Z,101098.13
2023-03-11T21:24:59.913Z,101105.81
2023-03-11T21:28:01.359Z,101102.47
2023-03-11T21:31:11.597Z,101110.13
2023-03-11T21:34:13.210Z,101112.69
2023-03-11T21:37:14.872Z,101108.50
2023-03-11T21:40:16.328Z,101111.06
2023-03-11T21:43:18.425Z,101111.09
2023-03-11T21:46:23.675Z,101111.94
2023-03-11T21:49:25.233Z,101112.81
2023-03-11T21:52:26.695Z,101119.63
2023-03-11T21:55:28.138Z,101112.00
2023-03-11T21:58:30.251Z,101106.94
2023-03-11T22:01:31.824Z,101117.94
2023-03-11T22:04:33.350Z,101117.91
2023-03-11T22:07:34.971Z,101120.41
2023-03-11T22:10:36.363Z,101121.19
2023-03-11T22:13:37.960Z,101127.09
2023-03-11T22:16:39.684Z,101125.41
2023-03-11T22:19:41.285Z,101137.22
2023-03-11T22:22:42.778Z,101122.00
2023-03-11T22:25:44.345Z,101122.06
2023-03-11T22:28:45.890Z,101117.91
2023-03-11T22:31:47.317Z,101115.44
2023-03-11T22:34:48.863Z,101123.97
2023-03-11T22:37:50.224Z,101125.69
2023-03-11T22:40:51.724Z,101125.72
2023-03-11T22:43:53.181Z,101118.13
2023-03-11T22:46:54.774Z,101127.44
2023-03-11T22:49:56.179Z,101123.22
2023-03-11T22:52:57.614Z,101124.09
2023-03-11T22:55:59.018Z,101124.97
2023-03-11T22:59:00.780Z,101134.31
2023-03-11T23:02:02.196Z,101130.91
2023-03-11T23:05:03.864Z,101135.19
2023-03-11T23:08:05.220Z,101141.09
2023-03-11T23:11:09.237Z,101148.72
2023-03-11T23:14:10.640Z,101145.34
2023-03-11T23:17:12.486Z,101141.97
2023-03-11T23:20:15.869Z,101152.97
2023-03-11T23:23:17.440Z,101141.97
2023-03-11T23:26:19.773Z,101149.56
2023-03-11T23:29:21.180Z,101154.66
2023-03-11T23:32:22.735Z,101158.91
2023-03-11T23:35:24.707Z,101163.13
2023-03-11T23:38:26.085Z,101166.53
2023-03-11T23:41:27.505Z,101169.03
2023-03-11T23:44:28.905Z,101166.53
2023-03-11T23:47:30.348Z,101175.81
2023-03-11T23:50:31.698Z,101174.97
2023-03-11T23:53:33.098Z,101181.75
2023-03-11T23:56:34.522Z,101182.59
2023-03-11T23:59:36.940Z,101182.59
